Time;durP1;ratioP1;P1;durP2;ratioP2;P2;SDS_P1;SDS_P2;PMS_P1;PMS_P2;Temp;Humidity;BMP_temperature;BMP_pressure;BME280_temperature;BME280_humidity;BME280_pressure;Samples;Min_cycle;Max_cycle;Signal;HPM_P1;HPM_P2
2021/03/26 00:00:13;;;;;;;4.50;3.75;;;7.20;59.20;;;;;;5077108;28;20076;-71
2021/03/26 00:02:39;;;;;;;6.55;4.45;;;7.10;59.30;;;;;;5077058;28;20029;-72
2021/03/26 00:05:10;;;;;;;6.43;4.28;;;7.10;59.50;;;;;;5076972;28;20063;-73
2021/03/26 00:07:36;;;;;;;6.28;4.10;;;7.10;59.60;;;;;;5094538;28;20036;-73
2021/03/26 00:10:07;;;;;;;6.28;4.70;;;7.00;59.60;;;;;;5076771;28;20029;-73
2021/03/26 00:12:33;;;;;;;7.00;4.80;;;7.10;59.70;;;;;;5077117;28;20043;-72
2021/03/26 00:14:59;;;;;;;7.97;4.70;;;7.10;59.80;;;;;;5076777;28;20032;-74
2021/03/26 00:17:25;;;;;;;7.10;4.22;;;7.00;59.90;;;;;;5060196;28;20043;-73
2021/03/26 00:19:54;;;;;;;6.25;4.60;;;7.10;60.00;;;;;;5060442;28;20400;-73
2021/03/26 00:22:20;;;;;;;7.15;4.70;;;7.10;60.00;;;;;;5060028;28;20059;-72
2021/03/26 00:24:45;;;;;;;7.03;5.03;;;7.10;59.90;;;;;;5060387;28;20032;-73
2021/03/26 00:27:15;;;;;;;6.75;4.68;;;7.00;59.90;;;;;;5062413;28;20512;-72
2021/03/26 00:29:41;;;;;;;5.78;4.03;;;7.10;59.90;;;;;;5081174;28;20040;-74
2021/03/26 00:32:09;;;;;;;6.38;4.00;;;7.10;59.70;;;;;;5081016;28;20127;-74
2021/03/26 00:34:35;;;;;;;7.43;4.55;;;7.00;59.80;;;;;;5063781;28;20040;-73
2021/03/26 00:37:02;;;;;;;6.75;4.65;;;7.00;59.70;;;;;;5063900;28;20037;-73
2021/03/26 00:39:28;;;;;;;6.82;4.38;;;6.90;59.90;;;;;;5064040;28;20040;-75
2021/03/26 00:41:54;;;;;;;5.63;4.70;;;7.00;59.70;;;;;;5080523;28;20036;-74
2021/03/26 00:44:20;;;;;;;7.10;4.78;;;6.90;59.80;;;;;;5063990;28;20056;-72
2021/03/26 00:46:49;;;;;;;6.10;4.45;;;6.90;60.10;;;;;;5080375;28;20123;-73
2021/03/26 00:49:15;;;;;;;6.15;4.88;;;6.90;60.20;;;;;;5063990;28;20056;-73
2021/03/26 00:51:42;;;;;;;6.47;4.13;;;6.80;60.40;;;;;;5064382;28;20102;-73
2021/03/26 00:54:08;;;;;;;6.93;5.07;;;6.80;60.60;;;;;;5063903;28;20040;-73
2021/03/26 00:56:35;;;;;;;8.63;5.10;;;6.80;60.60;;;;;;5063630;28;20056;-72
2021/03/26 00:59:02;;;;;;;6.55;4.60;;;6.80;60.60;;;;;;5080205;28;20044;-74
2021/03/26 01:01:28;;;;;;;6.78;4.40;;;6.80;60.40;;;;;;5064033;28;20051;-73
2021/03/26 01:03:54;;;;;;;8.27;4.90;;;6.70;60.40;;;;;;5097329;28;20036;-72
2021/03/26 01:06:20;;;;;;;8.00;5.43;;;6.80;60.20;;;;;;5062957;28;20036;-70
2021/03/26 01:08:47;;;;;;;8.02;5.10;;;6.70;60.40;;;;;;5078432;28;20032;-71
2021/03/26 01:11:21;;;;;;;8.07;5.38;;;6.70;60.50;;;;;;5062510;28;20036;-73
2021/03/26 01:13:48;;;;;;;7.80;4.60;;;6.70;60.70;;;;;;5063919;28;20032;-74
2021/03/26 01:16:17;;;;;;;7.72;5.00;;;6.70;60.70;;;;;;5080497;28;20048;-71
2021/03/26 01:18:45;;;;;;;10.18;5.53;;;6.70;60.90;;;;;;5062782;28;20135;-72
2021/03/26 01:21:23;;;;;;;8.93;5.40;;;6.70;60.80;;;;;;5063153;28;20457;-73
2021/03/26 01:23:49;;;;;;;8.13;5.13;;;6.70;61.00;;;;;;5096589;28;20033;-72
2021/03/26 01:26:16;;;;;;;9.57;5.38;;;6.70;61.00;;;;;;5095928;28;20073;-73
2021/03/26 01:28:56;;;;;;;7.90;5.55;;;6.70;61.20;;;;;;5079494;28;20032;-70
2021/03/26 01:31:35;;;;;;;9.50;5.57;;;6.70;61.10;;;;;;5078967;28;20043;-72
2021/03/26 01:34:04;;;;;;;8.48;5.30;;;6.60;61.20;;;;;;5062818;28;20036;-71
2021/03/26 01:36:37;;;;;;;10.25;6.68;;;6.70;61.20;;;;;;5079177;28;20048;-71
2021/03/26 01:39:08;;;;;;;8.35;5.88;;;6.70;61.30;;;;;;5077524;28;20033;-70
2021/03/26 01:41:42;;;;;;;9.18;6.22;;;6.70;61.30;;;;;;5078974;28;20041;-72
2021/03/26 01:44:16;;;;;;;7.80;5.53;;;6.60;61.40;;;;;;5062731;28;20040;-71
2021/03/26 01:46:44;;;;;;;8.75;5.72;;;6.60;61.40;;;;;;5061623;28;20077;-71
2021/03/26 01:49:14;;;;;;;8.50;6.00;;;6.60;61.20;;;;;;5078635;28;20123;-70
2021/03/26 01:51:45;;;;;;;7.70;5.30;;;6.60;61.10;;;;;;5079712;28;20036;-74
2021/03/26 01:54:16;;;;;;;7.07;5.18;;;6.60;61.10;;;;;;5079947;28;20555;-73
2021/03/26 01:56:43;;;;;;;8.13;5.50;;;6.70;61.20;;;;;;5079505;28;20573;-74
2021/03/26 01:59:23;;;;;;;9.82;5.75;;;6.60;61.10;;;;;;5064776;28;20127;-74
2021/03/26 02:01:58;;;;;;;7.85;5.55;;;6.60;61.20;;;;;;5079924;28;20081;-75
2021/03/26 02:04:46;;;;;;;9.13;5.65;;;6.60;61.40;;;;;;5063581;28;20044;-73
2021/03/26 02:07:42;;;;;;;13.50;6.43;;;6.60;61.40;;;;;;5030922;28;20486;-74
2021/03/26 02:10:15;;;;;;;9.35;6.38;;;6.50;61.40;;;;;;5079587;28;20032;-73
2021/03/26 02:12:42;;;;;;;8.25;5.93;;;6.40;61.90;;;;;;5095837;28;20424;-72
2021/03/26 02:15:21;;;;;;;8.80;6.20;;;6.40;61.90;;;;;;5063116;28;20119;-71
2021/03/26 02:17:48;;;;;;;8.05;5.85;;;6.40;61.90;;;;;;5062473;28;20154;-75
2021/03/26 02:20:33;;;;;;;9.63;6.32;;;6.40;61.90;;;;;;5062801;28;20414;-74
2021/03/26 02:23:13;;;;;;;9.48;6.47;;;6.40;62.10;;;;;;5079165;28;20063;-75
2021/03/26 02:25:51;;;;;;;10.68;6.10;;;6.40;62.30;;;;;;5064457;28;20070;-75
2021/03/26 02:28:17;;;;;;;8.65;6.10;;;6.40;62.00;;;;;;5080569;28;20033;-76
2021/03/26 02:30:51;;;;;;;8.85;6.20;;;6.40;62.00;;;;;;5079278;28;20052;-74
2021/03/26 02:33:18;;;;;;;10.00;6.40;;;6.40;62.00;;;;;;5062214;28;20032;-73
2021/03/26 02:35:52;;;;;;;7.85;5.78;;;6.40;62.00;;;;;;5061666;28;20390;-73
2021/03/26 02:38:54;;;;;;;10.38;6.57;;;6.50;62.10;;;;;;5069302;28;20032;-72
2021/03/26 02:41:48;;;;;;;7.65;6.75;;;6.40;62.20;;;;;;5078674;28;20079;-71
2021/03/26 02:45:03;;;;;;;9.88;6.60;;;6.40;62.30;;;;;;5077015;28;20040;-74
2021/03/26 02:48:11;;;;;;;9.60;6.82;;;6.40;62.30;;;;;;5078411;28;20290;-73
2021/03/26 02:51:03;;;;;;;9.90;6.10;;;6.30;62.40;;;;;;5061087;28;20078;-73
2021/03/26 02:54:01;;;;;;;8.60;6.40;;;6.40;62.20;;;;;;5077827;28;20059;-73
2021/03/26 02:56:36;;;;;;;8.90;6.43;;;6.40;62.20;;;;;;5078307;28;20056;-72
2021/03/26 02:59:11;;;;;;;9.68;6.10;;;6.30;62.10;;;;;;5060937;28;20412;-73
2021/03/26 03:01:44;;;;;;;9.95;6.45;;;6.30;62.30;;;;;;5076955;28;20067;-72
2021/03/26 03:04:52;;;;;;;10.35;7.00;;;6.30;62.50;;;;;;5061022;28;20044;-72
2021/03/26 03:07:25;;;;;;;9.52;6.38;;;6.30;62.50;;;;;;5057271;28;20052;-73
2021/03/26 03:10:29;;;;;;;10.18;6.88;;;6.30;62.50;;;;;;5073693;28;20041;-72
2021/03/26 03:13:25;;;;;;;12.15;6.90;;;6.30;62.60;;;;;;5060508;28;20054;-73
2021/03/26 03:15:59;;;;;;;8.60;6.18;;;6.20;62.50;;;;;;5077263;28;20060;-73
2021/03/26 03:18:34;;;;;;;10.18;6.10;;;6.10;62.90;;;;;;5062576;28;20033;-76
2021/03/26 03:21:17;;;;;;;10.05;6.55;;;6.10;62.80;;;;;;5079546;28;20028;-75
2021/03/26 03:23:50;;;;;;;10.25;6.55;;;6.20;62.90;;;;;;5060373;28;20044;-73
2021/03/26 03:26:43;;;;;;;11.65;6.78;;;6.20;63.00;;;;;;5061310;28;20036;-76
2021/03/26 03:29:36;;;;;;;13.27;7.30;;;6.10;63.10;;;;;;5089228;28;20057;-74
2021/03/26 03:32:39;;;;;;;11.13;6.68;;;6.10;63.30;;;;;;5101342;28;20118;-75
2021/03/26 03:35:19;;;;;;;10.77;7.25;;;6.20;63.00;;;;;;5111206;28;20033;-75
2021/03/26 03:38:08;;;;;;;12.00;7.30;;;6.10;63.10;;;;;;5091900;28;20040;-77
2021/03/26 03:41:00;;;;;;;10.77;7.00;;;6.10;63.10;;;;;;5101080;28;20039;-75
2021/03/26 03:43:44;;;;;;;11.20;7.70;;;6.20;63.10;;;;;;5096953;28;20561;-77
2021/03/26 03:46:34;;;;;;;12.25;8.32;;;6.20;63.10;;;;;;5100309;28;20043;-76
2021/03/26 03:49:52;;;;;;;13.27;7.72;;;6.20;63.10;;;;;;5085733;28;20024;-80
2021/03/26 03:52:20;;;;;;;12.52;7.18;;;6.20;63.20;;;;;;5100742;28;20039;-83
2021/03/26 03:55:14;;;;;;;9.77;7.30;;;6.20;63.10;;;;;;5101967;28;20032;-80
2021/03/26 03:57:44;;;;;;;13.20;7.50;;;6.20;62.90;;;;;;5117898;28;20109;-79
2021/03/26 04:00:46;;;;;;;11.85;7.75;;;6.20;62.80;;;;;;5094331;28;20142;-82
2021/03/26 04:03:22;;;;;;;10.10;7.93;;;6.30;62.90;;;;;;5093443;28;20516;-76
2021/03/26 04:05:59;;;;;;;12.38;7.75;;;6.30;63.10;;;;;;5097595;28;20127;-78
2021/03/26 04:09:03;;;;;;;11.27;7.63;;;6.30;63.20;;;;;;5101095;28;20090;-75
2021/03/26 04:11:36;;;;;;;12.90;7.78;;;6.20;63.30;;;;;;5091941;28;20036;-76
2021/03/26 04:14:29;;;;;;;12.85;7.82;;;6.20;63.60;;;;;;5108850;28;20415;-77
2021/03/26 04:17:01;;;;;;;10.77;7.38;;;6.30;63.40;;;;;;5101713;28;20061;-77
2021/03/26 04:19:38;;;;;;;10.75;7.50;;;6.30;63.00;;;;;;5083195;28;20488;-75
2021/03/26 04:22:09;;;;;;;11.38;7.85;;;6.40;62.90;;;;;;5082206;28;20036;-75
2021/03/26 04:25:27;;;;;;;10.95;7.35;;;6.40;63.00;;;;;;5079510;28;20488;-72
2021/03/26 04:28:20;;;;;;;12.45;8.02;;;6.50;62.60;;;;;;5097998;28;20043;-76
2021/03/26 04:31:20;;;;;;;15.00;9.27;;;6.50;62.50;;;;;;5095424;28;20052;-80
2021/03/26 04:34:01;;;;;;;14.10;7.93;;;6.60;62.50;;;;;;5077772;28;20070;-84
2021/03/26 04:36:49;;;;;;;13.80;7.88;;;6.70;62.30;;;;;;5081754;28;20492;-79
2021/03/26 04:39:55;;;;;;;15.60;8.60;;;6.70;62.10;;;;;;5085837;28;20036;-80
2021/03/26 04:42:49;;;;;;;16.05;8.80;;;6.90;62.00;;;;;;5056264;28;20036;-79
2021/03/26 04:45:45;;;;;;;12.20;9.02;;;6.90;61.80;;;;;;5079522;28;20042;-79
2021/03/26 04:48:43;;;;;;;15.70;8.40;;;7.00;61.60;;;;;;5044882;28;20030;-81
2021/03/26 04:51:54;;;;;;;18.75;10.20;;;7.10;61.40;;;;;;5077839;28;20044;-80
2021/03/26 04:54:39;;;;;;;17.40;8.98;;;7.20;61.10;;;;;;5098363;28;20028;-80
2021/03/26 04:57:22;;;;;;;15.57;9.35;;;7.20;61.00;;;;;;5081044;28;20068;-80
2021/03/26 05:00:03;;;;;;;33.90;19.45;;;7.20;61.10;;;;;;5082058;28;20454;-77
2021/03/26 05:02:32;;;;;;;23.50;13.60;;;7.30;61.20;;;;;;5080452;28;20041;-76
2021/03/26 05:05:02;;;;;;;22.13;12.60;;;7.30;61.10;;;;;;5080420;28;20040;-78
2021/03/26 05:07:51;;;;;;;20.85;11.18;;;7.30;61.00;;;;;;5097824;28;20520;-78
2021/03/26 05:10:22;;;;;;;20.25;11.60;;;7.40;60.90;;;;;;5080586;28;20054;-79
2021/03/26 05:13:11;;;;;;;17.98;11.05;;;7.40;60.80;;;;;;5083173;28;20037;-79
2021/03/26 05:15:50;;;;;;;16.30;10.63;;;7.50;60.60;;;;;;5084685;28;20464;-79
2021/03/26 05:18:33;;;;;;;19.27;10.38;;;7.60;60.50;;;;;;5084398;28;20085;-79
2021/03/26 05:21:12;;;;;;;19.15;10.18;;;7.60;60.60;;;;;;5068659;28;20044;-81
2021/03/26 05:24:32;;;;;;;18.58;10.23;;;7.70;60.60;;;;;;5084051;28;20036;-78
2021/03/26 05:27:18;;;;;;;18.02;10.23;;;7.80;60.50;;;;;;5084903;28;20112;-78
2021/03/26 05:29:49;;;;;;;20.45;11.65;;;7.80;60.20;;;;;;5085250;28;20483;-78
2021/03/26 05:32:40;;;;;;;14.25;9.70;;;7.90;60.70;;;;;;5083977;28;20501;-79
2021/03/26 05:35:09;;;;;;;16.23;10.55;;;7.90;60.00;;;;;;5085315;28;20051;-77
2021/03/26 05:38:12;;;;;;;18.08;10.05;;;7.90;59.90;;;;;;5083766;28;20560;-77
2021/03/26 05:41:03;;;;;;;;;;;8.00;59.70;;;;;;5085204;28;20117;-77
2021/03/26 05:44:17;;;;;;;;;;;8.00;59.80;;;;;;5084090;28;20455;-76
2021/03/26 05:47:36;;;;;;;15.05;9.50;;;8.00;59.80;;;;;;5084362;28;19927;-78
2021/03/26 05:50:47;;;;;;;11.70;8.73;;;8.10;59.60;;;;;;5031913;28;20044;-79
2021/03/26 05:53:32;;;;;;;15.45;10.25;;;8.10;59.40;;;;;;5083752;28;20059;-79
2021/03/26 05:56:33;;;;;;;12.60;9.20;;;8.10;59.40;;;;;;5076308;28;20485;-77
2021/03/26 05:59:45;;;;;;;13.40;9.32;;;8.30;59.80;;;;;;5083096;28;20048;-77
2021/03/26 06:02:40;;;;;;;13.55;8.98;;;8.30;59.10;;;;;;5077928;28;20087;-77
2021/03/26 06:05:44;;;;;;;12.32;8.63;;;8.30;59.20;;;;;;5084399;28;20086;-81
2021/03/26 06:09:04;;;;;;;12.07;8.93;;;8.40;59.10;;;;;;5086540;28;20035;-81
2021/03/26 06:12:14;;;;;;;24.23;14.38;;;8.50;58.80;;;;;;5065591;28;20044;-82
2021/03/26 06:15:45;;;;;;;17.83;12.52;;;8.40;58.80;;;;;;5073700;28;20048;-81
2021/03/26 06:19:08;;;;;;;15.25;11.30;;;8.50;58.80;;;;;;5061217;28;20041;-81
2021/03/26 06:22:42;;;;;;;16.63;10.65;;;8.50;58.70;;;;;;5085479;28;20498;-79
2021/03/26 06:26:11;;;;;;;15.95;10.70;;;8.50;58.60;;;;;;4994506;28;20034;-81
2021/03/26 06:28:46;;;;;;;17.02;11.13;;;8.50;58.60;;;;;;5082729;28;20040;-79
2021/03/26 06:31:49;;;;;;;15.32;9.73;;;8.70;58.70;;;;;;5082408;28;20036;-77
2021/03/26 06:34:57;;;;;;;14.43;9.40;;;8.70;58.40;;;;;;5078800;28;20127;-79
2021/03/26 06:37:31;;;;;;;13.27;9.93;;;8.70;58.20;;;;;;5083927;28;20055;-78
2021/03/26 06:40:09;;;;;;;18.98;9.80;;;8.80;58.30;;;;;;5084292;28;20063;-76
2021/03/26 06:42:50;;;;;;;13.90;9.48;;;9.00;58.40;;;;;;5083370;28;20040;-78
2021/03/26 06:45:52;;;;;;;14.77;9.60;;;9.40;57.70;;;;;;5082437;28;20060;-80
2021/03/26 06:48:24;;;;;;;13.40;9.70;;;9.80;57.00;;;;;;5081692;28;20040;-79
2021/03/26 06:51:23;;;;;;;13.32;10.40;;;10.20;55.90;;;;;;5084309;28;20044;-82
2021/03/26 06:54:05;;;;;;;12.85;9.50;;;10.70;55.00;;;;;;5080963;28;20063;-74
2021/03/26 06:56:46;;;;;;;14.25;9.65;;;11.30;54.00;;;;;;5081786;28;20452;-77
2021/03/26 06:59:39;;;;;;;14.70;8.98;;;11.70;53.60;;;;;;5074404;28;20127;-70
2021/03/26 07:02:23;;;;;;;10.75;8.45;;;12.40;58.70;;;;;;5073910;28;20049;-70
2021/03/26 07:05:04;;;;;;;17.65;9.80;;;13.30;58.30;;;;;;5072665;28;20040;-70
2021/03/26 07:07:54;;;;;;;16.90;9.52;;;14.00;55.20;;;;;;5073863;28;20043;-70
2021/03/26 07:10:44;;;;;;;14.90;9.70;;;14.60;55.00;;;;;;5079827;28;20528;-78
2021/03/26 07:13:30;;;;;;;13.98;9.60;;;15.00;53.40;;;;;;5083714;28;20060;-80
2021/03/26 07:16:18;;;;;;;13.15;10.50;;;15.40;51.40;;;;;;5082421;28;20040;-79
2021/03/26 07:18:53;;;;;;;15.68;10.73;;;15.70;49.40;;;;;;5083601;28;20080;-81
2021/03/26 07:21:25;;;;;;;15.57;9.73;;;16.00;48.20;;;;;;5081748;28;20079;-84
2021/03/26 07:24:23;;;;;;;12.30;10.13;;;16.20;48.10;;;;;;5081366;28;20044;-77
2021/03/26 07:27:04;;;;;;;15.15;10.60;;;16.50;47.00;;;;;;5010592;28;20499;-81
2021/03/26 07:30:00;;;;;;;14.57;10.63;;;16.70;46.30;;;;;;5100527;28;20020;-87
2021/03/26 07:32:48;;;;;;;12.48;9.68;;;17.00;45.50;;;;;;5084359;28;20052;-81
2021/03/26 07:35:54;;;;;;;13.60;10.23;;;17.20;45.40;;;;;;5098999;28;20038;-85
2021/03/26 07:38:39;;;;;;;15.45;10.75;;;17.50;44.70;;;;;;5082064;28;20074;-77
2021/03/26 07:41:23;;;;;;;15.70;10.35;;;17.70;43.80;;;;;;5081486;28;20037;-80
2021/03/26 07:43:55;;;;;;;15.52;10.75;;;17.90;43.60;;;;;;5082840;28;20043;-85
2021/03/26 07:46:52;;;;;;;14.25;9.85;;;18.00;43.80;;;;;;5081906;28;20037;-83
2021/03/26 07:49:18;;;;;;;15.75;10.77;;;18.00;43.90;;;;;;5083601;28;20063;-87
2021/03/26 07:52:09;;;;;;;16.25;10.95;;;18.10;43.20;;;;;;5083317;28;20044;-87
2021/03/26 07:54:44;;;;;;;13.55;11.10;;;18.20;42.70;;;;;;5081457;28;20081;-77
2021/03/26 07:57:43;;;;;;;13.05;10.32;;;18.20;42.80;;;;;;5081769;28;20068;-79
2021/03/26 08:00:46;;;;;;;16.60;11.15;;;18.30;42.70;;;;;;5081484;28;20089;-79
2021/03/26 08:03:25;;;;;;;14.70;10.27;;;18.20;42.40;;;;;;5083287;28;20564;-82
2021/03/26 08:06:07;;;;;;;16.83;12.38;;;18.20;43.00;;;;;;5082561;28;20134;-82
2021/03/26 08:08:58;;;;;;;13.10;9.85;;;18.20;42.50;;;;;;5082395;28;20043;-89
2021/03/26 08:11:56;;;;;;;12.25;10.18;;;18.10;43.50;;;;;;5083308;28;20048;-84
2021/03/26 08:14:31;;;;;;;18.20;12.52;;;18.20;42.90;;;;;;5082749;28;20044;-80
2021/03/26 08:16:57;;;;;;;18.00;12.95;;;18.20;42.90;;;;;;5081707;28;20040;-83
2021/03/26 08:19:32;;;;;;;15.30;11.40;;;18.20;43.00;;;;;;5082184;28;20044;-82
2021/03/26 08:22:35;;;;;;;17.02;11.82;;;18.30;42.50;;;;;;5081587;28;20049;-80
2021/03/26 08:25:34;;;;;;;14.90;11.80;;;18.30;42.80;;;;;;5080698;28;20098;-76
2021/03/26 08:28:14;;;;;;;15.57;11.27;;;18.20;43.10;;;;;;5077902;28;20046;-76
2021/03/26 08:30:40;;;;;;;15.98;10.65;;;18.20;43.10;;;;;;5077801;28;20109;-75
2021/03/26 08:33:16;;;;;;;14.50;10.70;;;18.20;43.50;;;;;;5074833;28;20536;-76
2021/03/26 08:36:04;;;;;;;15.73;10.50;;;18.20;43.40;;;;;;5076136;28;20111;-75
2021/03/26 08:38:35;;;;;;;11.63;9.50;;;18.30;43.30;;;;;;5079145;28;20045;-76
2021/03/26 08:41:24;;;;;;;14.48;11.00;;;18.10;43.30;;;;;;5077487;28;20068;-75
2021/03/26 08:43:52;;;;;;;18.60;10.77;;;18.10;44.00;;;;;;5073964;28;20039;-76
2021/03/26 08:46:29;;;;;;;14.55;10.05;;;18.20;43.80;;;;;;5074337;28;20086;-75
2021/03/26 08:49:02;;;;;;;12.25;9.32;;;18.20;43.80;;;;;;5079893;28;20039;-77
2021/03/26 08:52:05;;;;;;;15.35;10.15;;;18.20;43.60;;;;;;5085637;28;20036;-77
2021/03/26 08:54:41;;;;;;;15.07;9.77;;;18.30;43.50;;;;;;5079016;28;20029;-75
2021/03/26 08:57:26;;;;;;;13.43;9.32;;;18.30;43.00;;;;;;5078251;28;20129;-75
2021/03/26 09:00:29;;;;;;;17.90;10.90;;;18.30;43.20;;;;;;5079085;28;20090;-76
2021/03/26 09:03:18;;;;;;;18.73;11.20;;;18.40;42.90;;;;;;5081357;28;20124;-76
2021/03/26 09:06:05;;;;;;;12.15;9.25;;;18.40;43.00;;;;;;5079072;28;20099;-75
2021/03/26 09:08:51;;;;;;;15.18;9.55;;;18.40;42.80;;;;;;5080920;28;20500;-75
2021/03/26 09:11:47;;;;;;;16.50;9.77;;;18.40;43.00;;;;;;5076339;28;20516;-74
2021/03/26 09:14:32;;;;;;;16.02;8.68;;;18.40;43.00;;;;;;5077194;28;20098;-74
2021/03/26 09:17:02;;;;;;;14.68;8.77;;;18.30;43.40;;;;;;5062272;28;20048;-75
2021/03/26 09:19:37;;;;;;;14.77;9.30;;;18.30;42.90;;;;;;5079893;28;20028;-74
2021/03/26 09:22:09;;;;;;;10.20;8.88;;;18.30;43.00;;;;;;5077851;28;20055;-74
2021/03/26 09:25:00;;;;;;;13.75;8.68;;;18.20;43.50;;;;;;5075348;28;20370;-69
2021/03/26 09:27:38;;;;;;;14.75;7.80;;;18.10;45.10;;;;;;5074611;28;20094;-69
2021/03/26 09:30:22;;;;;;;16.23;8.57;;;18.10;45.40;;;;;;5075678;28;20044;-71
2021/03/26 09:33:08;;;;;;;11.45;7.47;;;18.10;45.60;;;;;;5075519;28;20559;-69
2021/03/26 09:35:37;;;;;;;10.93;7.32;;;18.10;45.50;;;;;;5076421;28;20033;-69
2021/03/26 09:38:06;;;;;;;17.45;7.82;;;18.10;46.50;;;;;;5075459;28;20052;-72
2021/03/26 09:40:33;;;;;;;13.07;7.88;;;18.20;46.00;;;;;;5074632;28;20040;-72
2021/03/26 09:43:37;;;;;;;11.93;5.95;;;18.20;45.50;;;;;;5076642;28;20045;-71
2021/03/26 09:46:09;;;;;;;12.45;7.45;;;18.20;47.80;;;;;;5042120;28;20040;-70
2021/03/26 09:49:11;;;;;;;7.82;5.68;;;18.30;47.00;;;;;;5075449;28;20420;-71
2021/03/26 09:51:46;;;;;;;10.75;7.18;;;18.10;47.80;;;;;;5076433;28;20033;-76
2021/03/26 09:54:18;;;;;;;10.75;6.75;;;18.10;45.70;;;;;;5076938;28;20138;-76
2021/03/26 09:56:44;;;;;;;10.73;6.88;;;18.00;45.70;;;;;;5077650;28;20083;-75
2021/03/26 09:59:26;;;;;;;7.93;6.45;;;18.00;46.40;;;;;;5077998;28;20048;-76
2021/03/26 10:02:10;;;;;;;9.98;6.45;;;18.00;46.50;;;;;;5078038;28;20035;-76
2021/03/26 10:04:58;;;;;;;9.02;5.82;;;18.10;46.40;;;;;;5078730;28;20520;-76
2021/03/26 10:08:06;;;;;;;9.38;6.70;;;18.10;46.10;;;;;;5078599;28;20040;-76
2021/03/26 10:13:03;;;;;;;10.90;8.98;;;18.10;45.30;;;;;;5080280;28;20098;-77
2021/03/26 10:15:43;;;;;;;10.98;7.57;;;18.00;45.10;;;;;;5080171;28;20103;-76
2021/03/26 10:18:21;;;;;;;8.27;6.47;;;18.00;44.80;;;;;;5063232;28;20043;-80
2021/03/26 10:20:51;;;;;;;11.70;8.57;;;17.90;45.70;;;;;;5082063;28;20123;-76
2021/03/26 10:23:30;;;;;;;11.90;8.38;;;17.90;45.40;;;;;;5081370;28;20032;-76
2021/03/26 10:25:55;;;;;;;10.40;8.25;;;17.80;45.70;;;;;;5079830;28;20044;-78
2021/03/26 10:28:33;;;;;;;16.13;9.95;;;17.70;45.60;;;;;;5080823;28;20481;-77
2021/03/26 10:31:15;;;;;;;12.32;9.15;;;17.60;45.70;;;;;;5082087;28;20035;-77
2021/03/26 10:33:52;;;;;;;11.45;8.13;;;17.40;46.30;;;;;;5080816;28;20032;-76
2021/03/26 10:36:23;;;;;;;11.75;8.63;;;17.30;45.90;;;;;;5083260;28;20036;-77
2021/03/26 10:39:11;;;;;;;9.25;7.60;;;17.20;45.50;;;;;;5083358;28;20044;-79
2021/03/26 10:42:08;;;;;;;8.38;6.20;;;17.00;46.50;;;;;;5083777;28;20032;-81
2021/03/26 10:45:03;;;;;;;10.57;6.35;;;17.00;47.10;;;;;;5083178;28;20044;-77
2021/03/26 10:47:44;;;;;;;9.73;6.72;;;17.00;47.40;;;;;;5081584;28;20082;-80
2021/03/26 10:50:28;;;;;;;9.90;6.25;;;16.90;47.40;;;;;;5081907;28;20503;-81
2021/03/26 10:53:04;;;;;;;9.50;6.43;;;16.80;46.80;;;;;;5083093;28;20064;-79
2021/03/26 10:55:40;;;;;;;7.38;5.72;;;16.80;46.70;;;;;;5097677;28;20040;-79
2021/03/26 10:58:31;;;;;;;8.15;5.93;;;16.80;47.20;;;;;;5081665;28;20052;-77
2021/03/26 11:01:05;;;;;;;9.20;6.72;;;16.70;46.60;;;;;;5078743;28;20044;-78
2021/03/26 11:03:49;;;;;;;12.00;6.75;;;16.50;45.80;;;;;;5078495;28;20124;-75
2021/03/26 11:06:37;;;;;;;11.73;6.70;;;16.40;47.20;;;;;;5076131;28;20044;-75
2021/03/26 11:09:08;;;;;;;8.30;6.43;;;16.40;47.40;;;;;;5076481;28;20124;-77
2021/03/26 11:11:40;;;;;;;9.48;5.68;;;16.30;48.10;;;;;;5075196;28;20068;-72
2021/03/26 11:14:27;;;;;;;11.95;6.35;;;16.40;48.80;;;;;;5075415;28;20067;-75
2021/03/26 11:17:18;;;;;;;10.10;6.68;;;16.30;48.80;;;;;;5075942;28;20035;-77
2021/03/26 11:20:24;;;;;;;8.98;5.90;;;16.40;48.90;;;;;;5074834;28;20037;-75
2021/03/26 11:23:19;;;;;;;5.95;5.35;;;16.40;47.50;;;;;;5076348;28;20123;-75
2021/03/26 11:25:51;;;;;;;8.60;4.13;;;16.40;48.40;;;;;;5067971;28;20508;-77
2021/03/26 11:28:27;;;;;;;6.95;4.65;;;16.40;48.00;;;;;;5073104;28;20408;-76
2021/03/26 11:31:17;;;;;;;6.60;4.18;;;16.50;48.00;;;;;;5074519;28;20124;-77
2021/03/26 11:34:01;;;;;;;7.22;5.35;;;16.60;47.70;;;;;;5074731;28;20051;-77
2021/03/26 11:36:46;;;;;;;7.10;5.03;;;16.60;47.10;;;;;;5073465;28;20051;-77
2021/03/26 11:39:25;;;;;;;7.20;4.68;;;16.60;46.60;;;;;;5075045;28;20036;-76
2021/03/26 11:42:02;;;;;;;6.75;4.93;;;16.50;46.00;;;;;;5075141;28;20040;-77
2021/03/26 11:44:39;;;;;;;6.75;4.47;;;16.50;46.30;;;;;;5075576;28;20051;-77
2021/03/26 11:47:25;;;;;;;9.23;5.72;;;16.50;46.40;;;;;;5091481;28;20029;-77
2021/03/26 11:50:01;;;;;;;7.60;6.00;;;16.50;45.90;;;;;;5075522;28;20442;-75
2021/03/26 11:52:35;;;;;;;5.90;5.18;;;16.50;45.40;;;;;;5075709;28;20032;-75
2021/03/26 11:55:11;;;;;;;8.23;5.90;;;16.40;45.50;;;;;;5074334;28;20040;-76
2021/03/26 11:57:53;;;;;;;8.43;5.88;;;16.40;46.40;;;;;;5075044;28;20056;-75
2021/03/26 12:00:24;;;;;;;7.80;5.63;;;16.30;47.20;;;;;;5078019;28;20107;-77
2021/03/26 12:03:21;;;;;;;11.43;6.38;;;16.30;46.80;;;;;;5080184;28;20033;-77
2021/03/26 12:06:22;;;;;;;10.25;7.10;;;16.30;46.30;;;;;;5079196;28;20086;-70
2021/03/26 12:09:10;;;;;;;8.48;6.05;;;16.30;46.70;;;;;;5078451;28;20040;-80
2021/03/26 12:12:00;;;;;;;9.88;6.47;;;16.10;46.90;;;;;;5080689;28;20094;-77
2021/03/26 12:14:38;;;;;;;9.80;6.68;;;16.10;46.80;;;;;;5078320;28;20024;-71
2021/03/26 12:17:04;;;;;;;10.20;6.15;;;16.10;46.90;;;;;;5073839;28;20090;-72
2021/03/26 12:19:34;;;;;;;9.65;7.30;;;16.00;46.80;;;;;;5072564;28;20451;-71
2021/03/26 12:22:17;;;;;;;9.95;6.93;;;16.00;46.80;;;;;;5071447;28;20500;-71
2021/03/26 12:25:00;;;;;;;10.90;7.65;;;16.00;46.80;;;;;;5071630;28;20028;-71
2021/03/26 12:27:44;;;;;;;10.48;6.60;;;15.90;46.10;;;;;;5078999;28;20071;-82
2021/03/26 12:30:36;;;;;;;9.77;6.13;;;15.90;46.50;;;;;;5081769;28;20032;-77
2021/03/26 12:33:09;;;;;;;10.05;6.65;;;15.80;46.30;;;;;;5078986;28;20113;-73
2021/03/26 12:35:56;;;;;;;11.40;7.10;;;15.80;46.10;;;;;;5095784;28;20025;-76
2021/03/26 12:38:29;;;;;;;9.23;6.90;;;15.80;46.00;;;;;;5080922;28;20052;-73
2021/03/26 12:40:55;;;;;;;9.48;5.97;;;15.70;46.10;;;;;;5078721;28;20040;-74
2021/03/26 12:43:30;;;;;;;6.68;5.35;;;15.70;46.00;;;;;;5075341;28;20131;-75
2021/03/26 12:46:07;;;;;;;7.35;5.55;;;15.60;46.60;;;;;;5058716;28;20033;-75
2021/03/26 12:48:42;;;;;;;8.45;5.80;;;15.60;45.80;;;;;;5073653;28;20106;-73
2021/03/26 12:51:26;;;;;;;5.87;4.83;;;15.50;45.80;;;;;;5078384;28;20455;-74
2021/03/26 12:54:01;;;;;;;11.00;5.90;;;15.50;45.70;;;;;;5073135;28;20802;-72
2021/03/26 12:56:53;;;;;;;6.63;4.68;;;15.40;45.70;;;;;;5073009;28;20028;-73
2021/03/26 12:59:39;;;;;;;7.75;4.60;;;15.40;45.60;;;;;;5041938;28;20523;-71
2021/03/26 13:02:14;;;;;;;;;;;15.40;45.60;;;;;;5074302;28;20031;-73
2021/03/26 13:04:46;;;;;;;7.95;5.10;;;15.40;45.20;;;;;;5072897;28;19912;-73
2021/03/26 13:07:30;;;;;;;6.18;4.47;;;15.40;45.10;;;;;;5072728;28;20029;-73
2021/03/26 13:10:14;;;;;;;5.32;4.35;;;15.40;45.00;;;;;;5072722;28;20489;-71
2021/03/26 13:12:44;;;;;;;7.45;3.88;;;15.40;45.10;;;;;;5073064;28;20064;-72
2021/03/26 13:15:13;;;;;;;4.80;3.55;;;15.30;45.20;;;;;;5074734;28;20041;-69
2021/03/26 13:17:39;;;;;;;5.93;3.88;;;15.30;45.20;;;;;;5072689;28;20033;-72
2021/03/26 13:20:16;;;;;;;5.10;4.03;;;15.30;45.20;;;;;;5072286;28;20485;-71
2021/03/26 13:22:46;;;;;;;8.15;4.45;;;15.30;45.20;;;;;;5087331;28;20033;-70
2021/03/26 13:25:20;;;;;;;15.82;10.52;;;15.30;45.00;;;;;;5071859;28;20045;-71
2021/03/26 13:27:51;;;;;;;13.50;9.52;;;15.30;44.90;;;;;;5072452;28;20032;-70
2021/03/26 13:30:24;;;;;;;9.98;7.10;;;15.20;45.20;;;;;;5071522;28;20485;-70
2021/03/26 13:32:58;;;;;;;5.80;4.95;;;15.10;45.10;;;;;;5070778;28;20032;-69
2021/03/26 13:35:36;;;;;;;7.30;4.65;;;15.10;45.20;;;;;;5056394;28;20044;-70
2021/03/26 13:38:25;;;;;;;6.18;4.10;;;15.00;45.00;;;;;;5074008;28;20081;-71
2021/03/26 13:40:54;;;;;;;6.18;4.10;;;15.00;45.20;;;;;;5026757;28;20048;-70
2021/03/26 13:43:30;;;;;;;4.68;3.17;;;14.90;45.20;;;;;;5075356;28;20029;-69
2021/03/26 13:46:02;;;;;;;9.48;3.60;;;14.90;45.20;;;;;;5078221;28;20032;-73
2021/03/26 13:48:38;;;;;;;4.82;3.10;;;14.70;45.70;;;;;;5073981;28;20078;-73
2021/03/26 13:51:10;;;;;;;;;;;14.60;46.00;;;;;;5075781;28;20051;-73
2021/03/26 13:53:40;;;;;;;5.32;3.65;;;14.60;46.30;;;;;;5076084;28;19912;-71
2021/03/26 13:56:34;;;;;;;5.80;3.35;;;14.50;46.30;;;;;;5074837;28;20044;-72
2021/03/26 13:59:35;;;;;;;5.93;3.08;;;14.60;46.70;;;;;;5075076;28;20076;-72
2021/03/26 14:02:20;;;;;;;5.82;2.97;;;14.60;46.60;;;;;;5073659;28;20097;-71
2021/03/26 14:05:12;;;;;;;8.05;4.57;;;14.60;46.30;;;;;;5074156;28;20432;-72